sensor_id;sensor_type;location;lat;lon;timestamp;pressure;altitude;pressure_sealevel;temperature;humidity
67457;BME280;54319;52.038;4.640;2022-11-14T00:00:07;101654.97;;;3.11;100.00
67457;BME280;54319;52.038;4.640;2022-11-14T00:02:36;101662.75;;;3.11;100.00
67457;BME280;54319;52.038;4.640;2022-11-14T00:05:03;101669.63;;;3.10;100.00
67457;BME280;54319;52.038;4.640;2022-11-14T00:07:30;101670.50;;;3.11;100.00
67457;BME280;54319;52.038;4.640;2022-11-14T00:09:57;101673.97;;;3.12;100.00
67457;BME280;54319;52.038;4.640;2022-11-14T00:12:24;101674.03;;;3.13;100.00
67457;BME280;54319;52.038;4.640;2022-11-14T00:14:51;101667.91;;;3.11;100.00
67457;BME280;54319;52.038;4.640;2022-11-14T00:17:22;101669.63;;;3.10;100.00
67457;BME280;54319;52.038;4.640;2022-11-14T00:19:49;101676.41;;;3.07;100.00
67457;BME280;54319;52.038;4.640;2022-11-14T00:22:18;101682.38;;;3.04;100.00
67457;BME280;54319;52.038;4.640;2022-11-14T00:24:44;101671.94;;;3.01;100.00
67457;BME280;54319;52.038;4.640;2022-11-14T00:27:11;101678.75;;;2.99;100.00
67457;BME280;54319;52.038;4.640;2022-11-14T00:29:38;101668.28;;;2.96;100.00
67457;BME280;54319;52.038;4.640;2022-11-14T00:32:05;101655.25;;;2.93;100.00
67457;BME280;54319;52.038;4.640;2022-11-14T00:34:33;101654.25;;;2.89;100.00
67457;BME280;54319;52.038;4.640;2022-11-14T00:37:00;101657.59;;;2.85;100.00
67457;BME280;54319;52.038;4.640;2022-11-14T00:39:27;101648.91;;;2.83;100.00
67457;BME280;54319;52.038;4.640;2022-11-14T00:41:55;101646.19;;;2.80;100.00
67457;BME280;54319;52.038;4.640;2022-11-14T00:44:21;101649.56;;;2.78;100.00
67457;BME280;54319;52.038;4.640;2022-11-14T00:46:48;101641.72;;;2.75;100.00
67457;BME280;54319;52.038;4.640;2022-11-14T00:49:15;101634.75;;;2.74;100.00
67457;BME280;54319;52.038;4.640;2022-11-14T00:51:43;101636.41;;;2.72;100.00
67457;BME280;54319;52.038;4.640;2022-11-14T00:54:10;101628.56;;;2.68;100.00
67457;BME280;54319;52.038;4.640;2022-11-14T00:56:37;101633.72;;;2.68;100.00
67457;BME280;54319;52.038;4.640;2022-11-14T00:59:04;101636.25;;;2.67;100.00
67457;BME280;54319;52.038;4.640;2022-11-14T01:01:31;101637.09;;;2.66;100.00
67457;BME280;54319;52.038;4.640;2022-11-14T01:03:58;101643.16;;;2.66;100.00
67457;BME280;54319;52.038;4.640;2022-11-14T01:06:25;101625.91;;;2.67;100.00
67457;BME280;54319;52.038;4.640;2022-11-14T01:08:53;101631.94;;;2.66;100.00
67457;BME280;54319;52.038;4.640;2022-11-14T01:11:22;101623.25;;;2.65;100.00
67457;BME280;54319;52.038;4.640;2022-11-14T01:13:48;101617.16;;;2.63;100.00
67457;BME280;54319;52.038;4.640;2022-11-14T01:16:16;101624.00;;;2.61;100.00
67457;BME280;54319;52.038;4.640;2022-11-14T01:18:43;101612.72;;;2.59;100.00
67457;BME280;54319;52.038;4.640;2022-11-14T01:21:11;101615.19;;;2.56;100.00
67457;BME280;54319;52.038;4.640;2022-11-14T01:23:41;101619.44;;;2.54;100.00
67457;BME280;54319;52.038;4.640;2022-11-14T01:26:11;101617.69;;;2.53;100.00
67457;BME280;54319;52.038;4.640;2022-11-14T01:28:39;101609.06;;;2.53;100.00
67457;BME280;54319;52.038;4.640;2022-11-14T01:31:08;101609.81;;;2.50;100.00
67457;BME280;54319;52.038;4.640;2022-11-14T01:33:35;101614.97;;;2.50;100.00
67457;BME280;54319;52.038;4.640;2022-11-14T01:36:02;101600.28;;;2.49;100.00
67457;BME280;54319;52.038;4.640;2022-11-14T01:38:29;101597.72;;;2.49;100.00
67457;BME280;54319;52.038;4.640;2022-11-14T01:40:56;101587.34;;;2.49;100.00
67457;BME280;54319;52.038;4.640;2022-11-14T01:43:30;101588.22;;;2.50;100.00
67457;BME280;54319;52.038;4.640;2022-11-14T01:46:00;101585.69;;;2.51;100.00
67457;BME280;54319;52.038;4.640;2022-11-14T01:48:34;101583.19;;;2.53;100.00
67457;BME280;54319;52.038;4.640;2022-11-14T01:51:09;101576.31;;;2.55;100.00
67457;BME280;54319;52.038;4.640;2022-11-14T01:53:38;101578.09;;;2.56;100.00
67457;BME280;54319;52.038;4.640;2022-11-14T01:56:08;101573.78;;;2.56;100.00
67457;BME280;54319;52.038;4.640;2022-11-14T01:58:40;101572.13;;;2.58;100.00
67457;BME280;54319;52.038;4.640;2022-11-14T02:01:09;101570.41;;;2.59;100.00
67457;BME280;54319;52.038;4.640;2022-11-14T02:03:39;101568.75;;;2.59;100.00
67457;BME280;54319;52.038;4.640;2022-11-14T02:06:09;101558.38;;;2.59;100.00
67457;BME280;54319;52.038;4.640;2022-11-14T02:08:39;101555.81;;;2.61;100.00
67457;BME280;54319;52.038;4.640;2022-11-14T02:11:09;101546.38;;;2.61;100.00
67457;BME280;54319;52.038;4.640;2022-11-14T02:13:38;101539.50;;;2.63;100.00
67457;BME280;54319;52.038;4.640;2022-11-14T02:16:05;101542.22;;;2.66;100.00
67457;BME280;54319;52.038;4.640;2022-11-14T02:18:32;101536.19;;;2.67;100.00
67457;BME280;54319;52.038;4.640;2022-11-14T02:21:00;101530.16;;;2.67;100.00
67457;BME280;54319;52.038;4.640;2022-11-14T02:23:28;101531.88;;;2.66;100.00
67457;BME280;54319;52.038;4.640;2022-11-14T02:25:55;101524.09;;;2.66;100.00
67457;BME280;54319;52.038;4.640;2022-11-14T02:28:23;101525.75;;;2.64;100.00
67457;BME280;54319;52.038;4.640;2022-11-14T02:30:50;101516.19;;;2.62;100.00
67457;BME280;54319;52.038;4.640;2022-11-14T02:33:17;101517.00;;;2.61;100.00
67457;BME280;54319;52.038;4.640;2022-11-14T02:35:46;101511.75;;;2.58;100.00
67457;BME280;54319;52.038;4.640;2022-11-14T02:38:14;101512.53;;;2.55;100.00
67457;BME280;54319;52.038;4.640;2022-11-14T02:40:41;101510.69;;;2.51;100.00
67457;BME280;54319;52.038;4.640;2022-11-14T02:43:08;101511.47;;;2.48;100.00
67457;BME280;54319;52.038;4.640;2022-11-14T02:45:34;101508.81;;;2.47;100.00
67457;BME280;54319;52.038;4.640;2022-11-14T02:48:03;101511.34;;;2.45;100.00
67457;BME280;54319;52.038;4.640;2022-11-14T02:50:30;101506.09;;;2.42;100.00
67457;BME280;54319;52.038;4.640;2022-11-14T02:52:57;101514.63;;;2.40;100.00
67457;BME280;54319;52.038;4.640;2022-11-14T02:55:25;101504.22;;;2.38;100.00
67457;BME280;54319;52.038;4.640;2022-11-14T02:57:52;101505.94;;;2.38;100.00
67457;BME280;54319;52.038;4.640;2022-11-14T03:00:19;101497.31;;;2.39;100.00
67457;BME280;54319;52.038;4.640;2022-11-14T03:02:46;101502.63;;;2.42;100.00
67457;BME280;54319;52.038;4.640;2022-11-14T03:05:15;101489.72;;;2.43;100.00
67457;BME280;54319;52.038;4.640;2022-11-14T03:07:42;101488.91;;;2.44;100.00
67457;BME280;54319;52.038;4.640;2022-11-14T03:10:12;101486.31;;;2.44;100.00
67457;BME280;54319;52.038;4.640;2022-11-14T03:12:40;101477.72;;;2.45;100.00
67457;BME280;54319;52.038;4.640;2022-11-14T03:15:09;101479.47;;;2.46;100.00
67457;BME280;54319;52.038;4.640;2022-11-14T03:17:35;101475.25;;;2.48;100.00
67457;BME280;54319;52.038;4.640;2022-11-14T03:20:02;101476.06;;;2.47;100.00
67457;BME280;54319;52.038;4.640;2022-11-14T03:22:34;101477.78;;;2.47;100.00
67457;BME280;54319;52.038;4.640;2022-11-14T03:25:00;101469.94;;;2.45;100.00
67457;BME280;54319;52.038;4.640;2022-11-14T03:27:28;101469.91;;;2.44;100.00
67457;BME280;54319;52.038;4.640;2022-11-14T03:29:56;101474.19;;;2.43;100.00
67457;BME280;54319;52.038;4.640;2022-11-14T03:32:23;101470.75;;;2.43;100.00
67457;BME280;54319;52.038;4.640;2022-11-14T03:34:49;101481.16;;;2.44;100.00
67457;BME280;54319;52.038;4.640;2022-11-14T03:37:16;101480.22;;;2.42;100.00
67457;BME280;54319;52.038;4.640;2022-11-14T03:39:46;101478.41;;;2.40;100.00
67457;BME280;54319;52.038;4.640;2022-11-14T03:42:14;101481.81;;;2.39;100.00
67457;BME280;54319;52.038;4.640;2022-11-14T03:44:41;101479.19;;;2.37;100.00
67457;BME280;54319;52.038;4.640;2022-11-14T03:47:09;101476.50;;;2.34;100.00
67457;BME280;54319;52.038;4.640;2022-11-14T03:49:36;101478.13;;;2.31;100.00
67457;BME280;54319;52.038;4.640;2022-11-14T03:52:03;101474.59;;;2.29;100.00
67457;BME280;54319;52.038;4.640;2022-11-14T03:54:30;101480.59;;;2.27;100.00
67457;BME280;54319;52.038;4.640;2022-11-14T03:56:57;101481.44;;;2.26;100.00
67457;BME280;54319;52.038;4.640;2022-11-14T03:59:24;101482.25;;;2.25;100.00
67457;BME280;54319;52.038;4.640;2022-11-14T04:01:51;101470.94;;;2.22;100.00
67457;BME280;54319;52.038;4.640;2022-11-14T04:04:19;101471.69;;;2.19;100.00
67457;BME280;54319;52.038;4.640;2022-11-14T04:06:46;101464.69;;;2.15;100.00
67457;BME280;54319;52.038;4.640;2022-11-14T04:09:13;101461.97;;;2.12;100.00
67457;BME280;54319;52.038;4.640;2022-11-14T04:11:40;101468.81;;;2.10;100.00
67457;BME280;54319;52.038;4.640;2022-11-14T04:14:08;101468.75;;;2.09;100.00
67457;BME280;54319;52.038;4.640;2022-11-14T04:16:35;101461.75;;;2.06;100.00
67457;BME280;54319;52.038;4.640;2022-11-14T04:19:02;101452.22;;;2.03;100.00
67457;BME280;54319;52.038;4.640;2022-11-14T04:21:30;101450.41;;;2.01;100.00
67457;BME280;54319;52.038;4.640;2022-11-14T04:23:57;101442.50;;;1.96;100.00
67457;BME280;54319;52.038;4.640;2022-11-14T04:26:24;101431.13;;;1.91;100.00
67457;BME280;54319;52.038;4.640;2022-11-14T04:28:51;101437.97;;;1.89;100.00
67457;BME280;54319;52.038;4.640;2022-11-14T04:31:19;101437.06;;;1.89;100.00
67457;BME280;54319;52.038;4.640;2022-11-14T04:33:45;101441.28;;;1.86;100.00
67457;BME280;54319;52.038;4.640;2022-11-14T04:36:13;101430.94;;;1.86;100.00
67457;BME280;54319;52.038;4.640;2022-11-14T04:38:41;101436.97;;;1.85;100.00
67457;BME280;54319;52.038;4.640;2022-11-14T04:41:08;101433.44;;;1.83;100.00
67457;BME280;54319;52.038;4.640;2022-11-14T04:43:35;101424.75;;;1.81;100.00
67457;BME280;54319;52.038;4.640;2022-11-14T04:46:02;101430.78;;;1.80;100.00
67457;BME280;54319;52.038;4.640;2022-11-14T04:48:29;101427.25;;;1.78;100.00
67457;BME280;54319;52.038;4.640;2022-11-14T04:50:56;101434.00;;;1.75;100.00
67457;BME280;54319;52.038;4.640;2022-11-14T04:53:22;101424.38;;;1.69;100.00
67457;BME280;54319;52.038;4.640;2022-11-14T04:55:50;101425.94;;;1.65;100.00
67457;BME280;54319;52.038;4.640;2022-11-14T04:58:18;101418.84;;;1.60;100.00
67457;BME280;54319;52.038;4.640;2022-11-14T05:00:45;101424.78;;;1.57;100.00
67457;BME280;54319;52.038;4.640;2022-11-14T05:03:12;101410.06;;;1.55;100.00
67457;BME280;54319;52.038;4.640;2022-11-14T05:05:38;101416.19;;;1.57;100.00
67457;BME280;54319;52.038;4.640;2022-11-14T05:08:05;101414.38;;;1.54;100.00
67457;BME280;54319;52.038;4.640;2022-11-14T05:10:32;101400.59;;;1.54;100.00
67457;BME280;54319;52.038;4.640;2022-11-14T05:13:00;101396.28;;;1.54;100.00
67457;BME280;54319;52.038;4.640;2022-11-14T05:15:27;101397.25;;;1.58;100.00
67457;BME280;54319;52.038;4.640;2022-11-14T05:17:57;101391.34;;;1.60;100.00
67457;BME280;54319;52.038;4.640;2022-11-14T05:20:24;101391.38;;;1.62;100.00
67457;BME280;54319;52.038;4.640;2022-11-14T05:22:52;101385.34;;;1.61;100.00
67457;BME280;54319;52.038;4.640;2022-11-14T05:25:19;101377.50;;;1.60;100.00
67457;BME280;54319;52.038;4.640;2022-11-14T05:27:47;101387.69;;;1.55;100.00
67457;BME280;54319;52.038;4.640;2022-11-14T05:30:15;101384.97;;;1.51;100.00
67457;BME280;54319;52.038;4.640;2022-11-14T05:32:45;101388.31;;;1.48;100.00
67457;BME280;54319;52.038;4.640;2022-11-14T05:35:11;101389.13;;;1.47;100.00
67457;BME280;54319;52.038;4.640;2022-11-14T05:37:39;101377.00;;;1.44;100.00
67457;BME280;54319;52.038;4.640;2022-11-14T05:40:06;101382.16;;;1.44;100.00
67457;BME280;54319;52.038;4.640;2022-11-14T05:42:34;101377.78;;;1.42;100.00
67457;BME280;54319;52.038;4.640;2022-11-14T05:45:02;101385.47;;;1.40;100.00
67457;BME280;54319;52.038;4.640;2022-11-14T05:47:31;101379.38;;;1.38;100.00
67457;BME280;54319;52.038;4.640;2022-11-14T05:49:57;101382.78;;;1.37;100.00
67457;BME280;54319;52.038;4.640;2022-11-14T05:52:24;101375.97;;;1.39;100.00
67457;BME280;54319;52.038;4.640;2022-11-14T05:54:51;101368.31;;;1.42;100.00
67457;BME280;54319;52.038;4.640;2022-11-14T05:57:19;101366.56;;;1.41;100.00
67457;BME280;54319;52.038;4.640;2022-11-14T05:59:45;101372.72;;;1.45;100.00
67457;BME280;54319;52.038;4.640;2022-11-14T06:02:12;101361.72;;;1.51;100.00
67457;BME280;54319;52.038;4.640;2022-11-14T06:04:40;101364.50;;;1.57;100.00
67457;BME280;54319;52.038;4.640;2022-11-14T06:07:07;101367.19;;;1.60;100.00
67457;BME280;54319;52.038;4.640;2022-11-14T06:09:34;101364.72;;;1.63;100.00
67457;BME280;54319;52.038;4.640;2022-11-14T06:12:01;101363.81;;;1.62;100.00
67457;BME280;54319;52.038;4.640;2022-11-14T06:14:30;101369.13;;;1.65;100.00
67457;BME280;54319;52.038;4.640;2022-11-14T06:16:57;101370.91;;;1.68;100.00
67457;BME280;54319;52.038;4.640;2022-11-14T06:19:24;101371.00;;;1.71;100.00
67457;BME280;54319;52.038;4.640;2022-11-14T06:21:52;101374.53;;;1.73;100.00
67457;BME280;54319;52.038;4.640;2022-11-14T06:24:19;101371.13;;;1.74;100.00
67457;BME280;54319;52.038;4.640;2022-11-14T06:26:49;101368.59;;;1.76;100.00
67457;BME280;54319;52.038;4.640;2022-11-14T06:29:16;101372.06;;;1.76;100.00
67457;BME280;54319;52.038;4.640;2022-11-14T06:31:43;101374.72;;;1.79;100.00
67457;BME280;54319;52.038;4.640;2022-11-14T06:34:10;101371.34;;;1.80;100.00
67457;BME280;54319;52.038;4.640;2022-11-14T06:36:38;101374.72;;;1.79;100.00
67457;BME280;54319;52.038;4.640;2022-11-14T06:39:09;101369.63;;;1.81;100.00
67457;BME280;54319;52.038;4.640;2022-11-14T06:41:39;101370.56;;;1.83;100.00
67457;BME280;54319;52.038;4.640;2022-11-14T06:44:06;101368.91;;;1.85;100.00
67457;BME280;54319;52.038;4.640;2022-11-14T06:46:33;101368.91;;;1.85;100.00
67457;BME280;54319;52.038;4.640;2022-11-14T06:49:03;101362.94;;;1.88;100.00
67457;BME280;54319;52.038;4.640;2022-11-14T06:51:30;101369.84;;;1.89;100.00
67457;BME280;54319;52.038;4.640;2022-11-14T06:53:56;101371.63;;;1.90;100.00
67457;BME280;54319;52.038;4.640;2022-11-14T06:56:28;101370.78;;;1.91;100.00
67457;BME280;54319;52.038;4.640;2022-11-14T06:58:54;101377.75;;;1.93;100.00
67457;BME280;54319;52.038;4.640;2022-11-14T07:01:23;101377.72;;;1.92;100.00
67457;BME280;54319;52.038;4.640;2022-11-14T07:03:51;101374.22;;;1.90;100.00
67457;BME280;54319;52.038;4.640;2022-11-14T07:06:20;101380.94;;;1.84;100.00
67457;BME280;54319;52.038;4.640;2022-11-14T07:08:48;101374.94;;;1.85;100.00
67457;BME280;54319;52.038;4.640;2022-11-14T07:11:17;101373.28;;;1.88;100.00
67457;BME280;54319;52.038;4.640;2022-11-14T07:13:49;101381.13;;;1.91;100.00
67457;BME280;54319;52.038;4.640;2022-11-14T07:16:19;101378.53;;;1.91;100.00
67457;BME280;54319;52.038;4.640;2022-11-14T07:18:46;101372.56;;;1.92;100.00
67457;BME280;54319;52.038;4.640;2022-11-14T07:21:14;101363.03;;;1.91;100.00
67457;BME280;54319;52.038;4.640;2022-11-14T07:23:41;101357.84;;;1.89;100.00
67457;BME280;54319;52.038;4.640;2022-11-14T07:26:09;101354.34;;;1.89;100.00
67457;BME280;54319;52.038;4.640;2022-11-14T07:28:37;101357.88;;;1.91;100.00
67457;BME280;54319;52.038;4.640;2022-11-14T07:31:11;101359.63;;;1.92;100.00
67457;BME280;54319;52.038;4.640;2022-11-14T07:33:38;101361.28;;;1.90;100.00
67457;BME280;54319;52.038;4.640;2022-11-14T07:36:07;101351.81;;;1.90;100.00
67457;BME280;54319;52.038;4.640;2022-11-14T07:38:35;101359.72;;;1.95;100.00
67457;BME280;54319;52.038;4.640;2022-11-14T07:41:04;101361.59;;;1.99;100.00
67457;BME280;54319;52.038;4.640;2022-11-14T07:43:31;101366.09;;;2.04;100.00
67457;BME280;54319;52.038;4.640;2022-11-14T07:45:59;101357.53;;;2.07;100.00
67457;BME280;54319;52.038;4.640;2022-11-14T07:48:27;101361.06;;;2.09;100.00
67457;BME280;54319;52.038;4.640;2022-11-14T07:50:57;101359.41;;;2.11;100.00
67457;BME280;54319;52.038;4.640;2022-11-14T07:53:24;101362.91;;;2.13;100.00
67457;BME280;54319;52.038;4.640;2022-11-14T07:55:51;101367.31;;;2.17;100.00
67457;BME280;54319;52.038;4.640;2022-11-14T07:58:18;101362.28;;;2.20;100.00
67457;BME280;54319;52.038;4.640;2022-11-14T08:00:45;101359.75;;;2.23;100.00
67457;BME280;54319;52.038;4.640;2022-11-14T08:03:12;101351.22;;;2.26;100.00
67457;BME280;54319;52.038;4.640;2022-11-14T08:05:40;101351.28;;;2.27;100.00
67457;BME280;54319;52.038;4.640;2022-11-14T08:08:07;101335.88;;;2.31;100.00
67457;BME280;54319;52.038;4.640;2022-11-14T08:10:34;101341.19;;;2.35;100.00
67457;BME280;54319;52.038;4.640;2022-11-14T08:13:03;101344.78;;;2.40;100.00
67457;BME280;54319;52.038;4.640;2022-11-14T08:15:31;101340.59;;;2.45;100.00
67457;BME280;54319;52.038;4.640;2022-11-14T08:17:59;101339.06;;;2.51;100.00
67457;BME280;54319;52.038;4.640;2022-11-14T08:20:26;101338.25;;;2.53;100.00
67457;BME280;54319;52.038;4.640;2022-11-14T08:23:00;101341.91;;;2.60;100.00
67457;BME280;54319;52.038;4.640;2022-11-14T08:25:27;101341.19;;;2.65;100.00
67457;BME280;54319;52.038;4.640;2022-11-14T08:27:54;101335.38;;;2.73;100.00
67457;BME280;54319;52.038;4.640;2022-11-14T08:30:21;101338.19;;;2.80;100.00
67457;BME280;54319;52.038;4.640;2022-11-14T08:32:49;101334.09;;;2.88;100.00
67457;BME280;54319;52.038;4.640;2022-11-14T08:35:15;101323.03;;;2.94;100.00
67457;BME280;54319;52.038;4.640;2022-11-14T08:37:42;101329.34;;;3.04;100.00
67457;BME280;54319;52.038;4.640;2022-11-14T08:40:11;101328.78;;;3.14;100.00
67457;BME280;54319;52.038;4.640;2022-11-14T08:42:38;101311.69;;;3.21;100.00
67457;BME280;54319;52.038;4.640;2022-11-14T08:45:05;101309.41;;;3.33;100.00
67457;BME280;54319;52.038;4.640;2022-11-14T08:47:32;101304.44;;;3.42;100.00
67457;BME280;54319;52.038;4.640;2022-11-14T08:49:59;101311.78;;;3.59;100.00
67457;BME280;54319;52.038;4.640;2022-11-14T08:52:28;101304.28;;;3.71;100.00
67457;BME280;54319;52.038;4.640;2022-11-14T08:54:54;101309.78;;;3.83;100.00
67457;BME280;54319;52.038;4.640;2022-11-14T08:57:22;101307.56;;;3.99;100.00
67457;BME280;54319;52.038;4.640;2022-11-14T08:59:51;101298.47;;;4.18;100.00
67457;BME280;54319;52.038;4.640;2022-11-14T09:02:19;101304.09;;;4.38;100.00
67457;BME280;54319;52.038;4.640;2022-11-14T09:04:46;101302.66;;;4.52;100.00
67457;BME280;54319;52.038;4.640;2022-11-14T09:07:13;101298.56;;;4.63;100.00
67457;BME280;54319;52.038;4.640;2022-11-14T09:09:42;101296.22;;;4.75;100.00
67457;BME280;54319;52.038;4.640;2022-11-14T09:12:10;101303.38;;;4.86;100.00
67457;BME280;54319;52.038;4.640;2022-11-14T09:14:37;101295.78;;;4.96;100.00
67457;BME280;54319;52.038;4.640;2022-11-14T09:17:05;101291.63;;;5.06;100.00
67457;BME280;54319;52.038;4.640;2022-11-14T09:19:31;101302.06;;;5.09;99.52
67457;BME280;54319;52.038;4.640;2022-11-14T09:21:58;101297.19;;;5.25;98.92
67457;BME280;54319;52.038;4.640;2022-11-14T09:24:25;101304.22;;;5.32;97.86
67457;BME280;54319;52.038;4.640;2022-11-14T09:26:52;101300.00;;;5.38;96.48
67457;BME280;54319;52.038;4.640;2022-11-14T09:29:18;101295.84;;;5.48;96.36
67457;BME280;54319;52.038;4.640;2022-11-14T09:31:47;101292.47;;;5.54;94.87
67457;BME280;54319;52.038;4.640;2022-11-14T09:34:16;101291.56;;;5.52;94.80
67457;BME280;54319;52.038;4.640;2022-11-14T09:36:46;101284.91;;;5.68;94.70
67457;BME280;54319;52.038;4.640;2022-11-14T09:39:14;101279.00;;;5.78;93.79
67457;BME280;54319;52.038;4.640;2022-11-14T09:41:53;101279.06;;;5.83;92.72
67457;BME280;54319;52.038;4.640;2022-11-14T09:44:31;101278.38;;;5.93;91.88
67457;BME280;54319;52.038;4.640;2022-11-14T09:47:08;101286.28;;;5.97;92.11
67457;BME280;54319;52.038;4.640;2022-11-14T09:49:38;101284.59;;;6.03;92.62
67457;BME280;54319;52.038;4.640;2022-11-14T09:52:14;101277.81;;;6.14;92.09
67457;BME280;54319;52.038;4.640;2022-11-14T09:54:51;101271.94;;;6.27;91.45
67457;BME280;54319;52.038;4.640;2022-11-14T09:57:19;101277.94;;;6.23;91.44
67457;BME280;54319;52.038;4.640;2022-11-14T09:59:46;101271.03;;;6.24;90.43
67457;BME280;54319;52.038;4.640;2022-11-14T10:02:38;101282.47;;;6.38;90.80
67457;BME280;54319;52.038;4.640;2022-11-14T10:05:18;101268.66;;;6.42;91.10
67457;BME280;54319;52.038;4.640;2022-11-14T10:07:59;101263.59;;;6.53;90.25
67457;BME280;54319;52.038;4.640;2022-11-14T10:10:41;101261.88;;;6.56;90.42
67457;BME280;54319;52.038;4.640;2022-11-14T10:13:20;101257.59;;;6.60;89.81
67457;BME280;54319;52.038;4.640;2022-11-14T10:15:55;101246.31;;;6.63;89.40
67457;BME280;54319;52.038;4.640;2022-11-14T10:18:49;101237.75;;;6.71;89.02
67457;BME280;54319;52.038;4.640;2022-11-14T10:21:31;101240.44;;;6.80;89.50
67457;BME280;54319;52.038;4.640;2022-11-14T10:24:05;101236.22;;;6.90;88.85
67457;BME280;54319;52.038;4.640;2022-11-14T10:26:41;101243.16;;;6.91;88.56
67457;BME280;54319;52.038;4.640;2022-11-14T10:29:37;101250.19;;;7.00;88.86
67457;BME280;54319;52.038;4.640;2022-11-14T10:32:16;101249.44;;;7.10;88.03
67457;BME280;54319;52.038;4.640;2022-11-14T10:34:51;101254.72;;;7.18;87.33
67457;BME280;54319;52.038;4.640;2022-11-14T10:37:24;101248.66;;;7.19;87.41
67457;BME280;54319;52.038;4.640;2022-11-14T10:39:54;101253.03;;;7.23;87.85
67457;BME280;54319;52.038;4.640;2022-11-14T10:42:31;101256.63;;;7.37;87.89
67457;BME280;54319;52.038;4.640;2022-11-14T10:45:02;101257.56;;;7.44;87.33
67457;BME280;54319;52.038;4.640;2022-11-14T10:47:36;101257.69;;;7.58;86.96
67457;BME280;54319;52.038;4.640;2022-11-14T10:50:14;101244.66;;;7.64;86.36
67457;BME280;54319;52.038;4.640;2022-11-14T10:52:44;101239.53;;;7.75;84.97
67457;BME280;54319;52.038;4.640;2022-11-14T10:55:13;101231.69;;;7.70;85.55
67457;BME280;54319;52.038;4.640;2022-11-14T10:57:41;101232.56;;;7.72;86.73
67457;BME280;54319;52.038;4.640;2022-11-14T11:00:20;101223.16;;;7.96;85.88
67457;BME280;54319;52.038;4.640;2022-11-14T11:02:53;101213.63;;;8.07;84.24
67457;BME280;54319;52.038;4.640;2022-11-14T11:05:29;101213.66;;;8.09;85.14
67457;BME280;54319;52.038;4.640;2022-11-14T11:08:01;101218.03;;;8.11;85.44
67457;BME280;54319;52.038;4.640;2022-11-14T11:10:46;101217.19;;;8.20;84.98
67457;BME280;54319;52.038;4.640;2022-11-14T11:13:32;101208.47;;;8.21;84.67
67457;BME280;54319;52.038;4.640;2022-11-14T11:16:02;101194.59;;;8.34;84.76
67457;BME280;54319;52.038;4.640;2022-11-14T11:18:31;101205.13;;;8.40;84.21
67457;BME280;54319;52.038;4.640;2022-11-14T11:21:07;101200.72;;;8.35;84.47
67457;BME280;54319;52.038;4.640;2022-11-14T11:23:34;101203.41;;;8.44;84.17
67457;BME280;54319;52.038;4.640;2022-11-14T11:26:05;101191.22;;;8.51;83.69
67457;BME280;54319;52.038;4.640;2022-11-14T11:29:13;101196.47;;;8.64;83.57
67457;BME280;54319;52.038;4.640;2022-11-14T11:31:51;101194.78;;;8.70;83.16
67457;BME280;54319;52.038;4.640;2022-11-14T11:34:24;101192.16;;;8.73;83.13
67457;BME280;54319;52.038;4.640;2022-11-14T11:37:00;101201.75;;;8.84;83.54
67457;BME280;54319;52.038;4.640;2022-11-14T11:39:31;101196.53;;;8.89;82.88
67457;BME280;54319;52.038;4.640;2022-11-14T11:42:04;101196.56;;;8.98;82.30
67457;BME280;54319;52.038;4.640;2022-11-14T11:44:37;101191.34;;;8.94;82.74
67457;BME280;54319;52.038;4.640;2022-11-14T11:47:11;101190.44;;;8.98;82.28
67457;BME280;54319;52.038;4.640;2022-11-14T11:49:43;101180.88;;;9.01;82.08
67457;BME280;54319;52.038;4.640;2022-11-14T11:52:18;101177.38;;;9.01;82.68
67457;BME280;54319;52.038;4.640;2022-11-14T11:54:57;101179.13;;;9.06;82.57
67457;BME280;54319;52.038;4.640;2022-11-14T11:57:30;101180.00;;;9.08;82.90
67457;BME280;54319;52.038;4.640;2022-11-14T12:00:04;101181.72;;;9.06;83.21
67457;BME280;54319;52.038;4.640;2022-11-14T12:02:40;101184.34;;;9.23;81.69
67457;BME280;54319;52.038;4.640;2022-11-14T12:05:13;101178.25;;;9.15;81.40
67457;BME280;54319;52.038;4.640;2022-11-14T12:07:47;101180.00;;;9.13;82.01
67457;BME280;54319;52.038;4.640;2022-11-14T12:10:21;101177.38;;;9.19;82.18
67457;BME280;54319;52.038;4.640;2022-11-14T12:13:20;101179.16;;;9.20;82.75
67457;BME280;54319;52.038;4.640;2022-11-14T12:15:59;101183.50;;;9.18;82.81
67457;BME280;54319;52.038;4.640;2022-11-14T12:21:40;101168.69;;;9.29;81.79
67457;BME280;54319;52.038;4.640;2022-11-14T12:24:51;101162.59;;;9.18;82.03
67457;BME280;54319;52.038;4.640;2022-11-14T12:27:34;101163.47;;;9.05;83.23
67457;BME280;54319;52.038;4.640;2022-11-14T12:30:14;101155.59;;;9.08;83.66
67457;BME280;54319;52.038;4.640;2022-11-14T12:32:49;101150.38;;;9.16;84.66
67457;BME280;54319;52.038;4.640;2022-11-14T12:35:24;101156.47;;;9.38;83.54
67457;BME280;54319;52.038;4.640;2022-11-14T12:37:59;101150.38;;;9.40;83.56
67457;BME280;54319;52.038;4.640;2022-11-14T12:40:34;101146.84;;;9.52;82.98
67457;BME280;54319;52.038;4.640;2022-11-14T12:43:02;101145.97;;;9.45;82.86
67457;BME280;54319;52.038;4.640;2022-11-14T12:45:57;101145.97;;;9.52;82.23
67457;BME280;54319;52.038;4.640;2022-11-14T12:48:31;101136.38;;;9.46;82.93
67457;BME280;54319;52.038;4.640;2022-11-14T12:50:59;101140.75;;;9.50;82.85
67457;BME280;54319;52.038;4.640;2022-11-14T12:53:38;101139.88;;;9.48;83.10
67457;BME280;54319;52.038;4.640;2022-11-14T12:56:43;101132.94;;;9.32;84.16
67457;BME280;54319;52.038;4.640;2022-11-14T12:59:21;101132.88;;;9.56;83.28
67457;BME280;54319;52.038;4.640;2022-11-14T13:02:07;101116.31;;;9.57;82.46
67457;BME280;54319;52.038;4.640;2022-11-14T13:04:58;101105.84;;;9.57;82.31
67457;BME280;54319;52.038;4.640;2022-11-14T13:07:32;101104.06;;;9.65;81.48
67457;BME280;54319;52.038;4.640;2022-11-14T13:10:15;101102.38;;;9.60;81.45